Luis Gomes, Brazil
Current Conditions -  °F | °C
As of 8:00 AM on Monday 20 Oct 2014 (Local Time) from SBJU Reporting Station
Few Clouds Few Clouds  
Wind Chill: 84°   Ceiling: Unl
Heat Index: 90°   Visibility: 6mi
Dew Point: 72°   Wind: 6mph
Humidity: 66%   Direction: 100°E
Pressure: 30.03"   Gusts: NA
Location:  6.41°S, 38.39°W
Report Text: SBJU 201100Z 10005KT 9999 FEW020 29/22 Q1017
Loading
Personal Weather Stations






























Interactive Weather Map
Tropical Storm Tracking
New forecast layout! Learn more

10-Day Weather Forecast

Advertisements
Track Severe Weather on mobile